Bluff Dale, Texas
Current Conditions -  °F | °C
As of 2:35 AM on Sunday 21 Dec 2014 (Local Time) from KSEP Reporting Station
Overcast Overcast  
Wind Chill: 42°   Ceiling: 1800
Heat Index: 46°   Visibility: 5mi
Dew Point: 43°   Wind: 8mph
Humidity: 88%   Direction: 150°SSE
Pressure: 30.13"   Gusts: NA
Location:  32.35°N, 98.02°W
Report Text: KSEP 210835Z AUTO 15007KT 5SM BKN018 OVC033 08/06 A3013 RMK AO2 T00780060
Loading
Personal Weather Stations






























Interactive Weather Map New forecast layout! Learn more

10-Day Weather Forecast

Advertisements
Track Severe Weather on mobile